sensor_id;sensor_type;location;lat;lon;timestamp;temperature;humidity
17587;DHT22;8912;52.336;17.172;2022-08-03T00:00:39;17.50;99.90
17587;DHT22;8912;52.336;17.172;2022-08-03T00:03:07;17.60;99.90
17587;DHT22;8912;52.336;17.172;2022-08-03T00:05:36;17.50;99.90
17587;DHT22;8912;52.336;17.172;2022-08-03T00:08:07;17.60;99.90
17587;DHT22;8912;52.336;17.172;2022-08-03T00:10:36;17.50;99.90
17587;DHT22;8912;52.336;17.172;2022-08-03T00:13:05;17.60;99.90
17587;DHT22;8912;52.336;17.172;2022-08-03T00:15:34;17.50;99.90
17587;DHT22;8912;52.336;17.172;2022-08-03T00:18:03;17.50;99.90
17587;DHT22;8912;52.336;17.172;2022-08-03T00:20:32;17.50;99.90
17587;DHT22;8912;52.336;17.172;2022-08-03T00:23:01;17.50;99.90
17587;DHT22;8912;52.336;17.172;2022-08-03T00:25:32;17.50;99.90
17587;DHT22;8912;52.336;17.172;2022-08-03T00:28:01;17.60;99.90
17587;DHT22;8912;52.336;17.172;2022-08-03T00:30:30;17.60;99.90
17587;DHT22;8912;52.336;17.172;2022-08-03T00:32:59;17.60;99.90
17587;DHT22;8912;52.336;17.172;2022-08-03T00:35:29;17.70;99.90
17587;DHT22;8912;52.336;17.172;2022-08-03T00:38:17;17.70;99.90
17587;DHT22;8912;52.336;17.172;2022-08-03T00:40:47;17.60;99.90
17587;DHT22;8912;52.336;17.172;2022-08-03T00:43:16;17.60;99.90
17587;DHT22;8912;52.336;17.172;2022-08-03T00:45:45;17.60;99.90
17587;DHT22;8912;52.336;17.172;2022-08-03T00:48:17;17.70;99.90
17587;DHT22;8912;52.336;17.172;2022-08-03T00:51:00;17.70;99.90
17587;DHT22;8912;52.336;17.172;2022-08-03T00:53:29;17.70;99.90
17587;DHT22;8912;52.336;17.172;2022-08-03T00:56:00;17.70;99.90
17587;DHT22;8912;52.336;17.172;2022-08-03T00:58:29;17.60;99.90
17587;DHT22;8912;52.336;17.172;2022-08-03T01:00:58;17.60;99.90
17587;DHT22;8912;52.336;17.172;2022-08-03T01:03:26;17.60;99.90
17587;DHT22;8912;52.336;17.172;2022-08-03T01:05:59;17.50;99.90
17587;DHT22;8912;52.336;17.172;2022-08-03T01:08:36;17.50;99.90
17587;DHT22;8912;52.336;17.172;2022-08-03T01:11:14;17.50;99.90
17587;DHT22;8912;52.336;17.172;2022-08-03T01:13:56;17.50;99.90
17587;DHT22;8912;52.336;17.172;2022-08-03T01:16:53;17.50;99.90
17587;DHT22;8912;52.336;17.172;2022-08-03T01:19:41;17.50;99.90
17587;DHT22;8912;52.336;17.172;2022-08-03T01:22:29;17.50;99.90
17587;DHT22;8912;52.336;17.172;2022-08-03T01:25:08;17.50;99.90
17587;DHT22;8912;52.336;17.172;2022-08-03T01:27:50;17.50;99.90
17587;DHT22;8912;52.336;17.172;2022-08-03T01:30:28;17.50;99.90
17587;DHT22;8912;52.336;17.172;2022-08-03T01:33:01;17.50;99.90
17587;DHT22;8912;52.336;17.172;2022-08-03T01:35:34;17.50;99.90
17587;DHT22;8912;52.336;17.172;2022-08-03T01:38:10;17.50;99.90
17587;DHT22;8912;52.336;17.172;2022-08-03T01:40:40;17.40;99.90
17587;DHT22;8912;52.336;17.172;2022-08-03T01:43:13;17.40;99.90
17587;DHT22;8912;52.336;17.172;2022-08-03T01:46:06;17.40;99.90
17587;DHT22;8912;52.336;17.172;2022-08-03T01:48:37;17.40;99.90
17587;DHT22;8912;52.336;17.172;2022-08-03T01:51:08;17.30;99.90
17587;DHT22;8912;52.336;17.172;2022-08-03T01:53:39;17.30;99.90
17587;DHT22;8912;52.336;17.172;2022-08-03T01:56:10;17.20;99.90
17587;DHT22;8912;52.336;17.172;2022-08-03T01:58:40;17.20;99.90
17587;DHT22;8912;52.336;17.172;2022-08-03T02:01:12;17.20;99.90
17587;DHT22;8912;52.336;17.172;2022-08-03T02:03:44;17.20;99.90
17587;DHT22;8912;52.336;17.172;2022-08-03T02:06:28;17.10;99.90
17587;DHT22;8912;52.336;17.172;2022-08-03T02:09:19;17.10;99.90
17587;DHT22;8912;52.336;17.172;2022-08-03T02:11:50;17.30;99.90
17587;DHT22;8912;52.336;17.172;2022-08-03T02:14:19;17.30;99.90
17587;DHT22;8912;52.336;17.172;2022-08-03T02:16:50;17.20;99.90
17587;DHT22;8912;52.336;17.172;2022-08-03T02:19:20;17.30;99.90
17587;DHT22;8912;52.336;17.172;2022-08-03T02:21:50;17.30;99.90
17587;DHT22;8912;52.336;17.172;2022-08-03T02:24:27;17.40;99.90
17587;DHT22;8912;52.336;17.172;2022-08-03T02:26:57;17.40;99.90
17587;DHT22;8912;52.336;17.172;2022-08-03T02:29:31;17.50;99.90
17587;DHT22;8912;52.336;17.172;2022-08-03T02:32:13;17.50;99.90
17587;DHT22;8912;52.336;17.172;2022-08-03T02:34:45;17.50;99.90
17587;DHT22;8912;52.336;17.172;2022-08-03T02:37:17;17.40;99.90
17587;DHT22;8912;52.336;17.172;2022-08-03T02:39:47;17.40;99.90
17587;DHT22;8912;52.336;17.172;2022-08-03T02:42:20;17.50;99.90
17587;DHT22;8912;52.336;17.172;2022-08-03T02:44:52;17.60;99.90
17587;DHT22;8912;52.336;17.172;2022-08-03T02:47:25;17.60;99.90
17587;DHT22;8912;52.336;17.172;2022-08-03T02:50:16;17.50;99.90
17587;DHT22;8912;52.336;17.172;2022-08-03T02:52:46;17.50;99.90
17587;DHT22;8912;52.336;17.172;2022-08-03T02:55:17;17.40;99.90
17587;DHT22;8912;52.336;17.172;2022-08-03T02:57:47;17.40;99.90
17587;DHT22;8912;52.336;17.172;2022-08-03T03:00:16;17.50;99.90
17587;DHT22;8912;52.336;17.172;2022-08-03T03:02:57;17.50;99.90
17587;DHT22;8912;52.336;17.172;2022-08-03T03:05:27;17.50;99.90
17587;DHT22;8912;52.336;17.172;2022-08-03T03:08:18;17.50;99.90
17587;DHT22;8912;52.336;17.172;2022-08-03T03:10:56;17.40;99.90
17587;DHT22;8912;52.336;17.172;2022-08-03T03:13:27;17.20;99.90
17587;DHT22;8912;52.336;17.172;2022-08-03T03:15:59;17.20;99.90
17587;DHT22;8912;52.336;17.172;2022-08-03T03:18:30;17.20;99.90
17587;DHT22;8912;52.336;17.172;2022-08-03T03:21:00;17.20;99.90
17587;DHT22;8912;52.336;17.172;2022-08-03T03:23:31;17.30;99.90
17587;DHT22;8912;52.336;17.172;2022-08-03T03:26:03;17.40;99.90
17587;DHT22;8912;52.336;17.172;2022-08-03T03:28:32;17.50;99.90
17587;DHT22;8912;52.336;17.172;2022-08-03T03:31:04;17.50;99.90
17587;DHT22;8912;52.336;17.172;2022-08-03T03:33:36;17.50;99.90
17587;DHT22;8912;52.336;17.172;2022-08-03T03:36:05;17.60;99.90
17587;DHT22;8912;52.336;17.172;2022-08-03T03:38:35;17.60;99.90
17587;DHT22;8912;52.336;17.172;2022-08-03T03:41:04;17.60;99.90
17587;DHT22;8912;52.336;17.172;2022-08-03T03:43:32;17.60;99.90
17587;DHT22;8912;52.336;17.172;2022-08-03T03:46:01;17.60;99.90
17587;DHT22;8912;52.336;17.172;2022-08-03T03:48:31;17.70;99.90
17587;DHT22;8912;52.336;17.172;2022-08-03T03:51:02;17.70;99.90
17587;DHT22;8912;52.336;17.172;2022-08-03T03:53:31;17.70;99.90
17587;DHT22;8912;52.336;17.172;2022-08-03T03:55:59;17.80;99.90
17587;DHT22;8912;52.336;17.172;2022-08-03T03:58:30;17.80;99.90
17587;DHT22;8912;52.336;17.172;2022-08-03T04:01:00;17.80;99.90
17587;DHT22;8912;52.336;17.172;2022-08-03T04:03:29;17.90;99.90
17587;DHT22;8912;52.336;17.172;2022-08-03T04:05:57;17.90;99.90
17587;DHT22;8912;52.336;17.172;2022-08-03T04:08:46;18.00;99.90
17587;DHT22;8912;52.336;17.172;2022-08-03T04:11:37;18.10;99.90
17587;DHT22;8912;52.336;17.172;2022-08-03T04:14:09;18.30;99.90
17587;DHT22;8912;52.336;17.172;2022-08-03T04:16:41;18.40;99.90
17587;DHT22;8912;52.336;17.172;2022-08-03T04:19:14;18.50;99.90
17587;DHT22;8912;52.336;17.172;2022-08-03T04:21:51;18.40;99.90
17587;DHT22;8912;52.336;17.172;2022-08-03T04:24:29;18.30;99.90
17587;DHT22;8912;52.336;17.172;2022-08-03T04:27:02;18.40;99.90
17587;DHT22;8912;52.336;17.172;2022-08-03T04:29:34;18.50;99.90
17587;DHT22;8912;52.336;17.172;2022-08-03T04:32:15;18.50;99.90
17587;DHT22;8912;52.336;17.172;2022-08-03T04:34:45;18.60;99.90
17587;DHT22;8912;52.336;17.172;2022-08-03T04:37:22;18.70;99.90
17587;DHT22;8912;52.336;17.172;2022-08-03T04:39:56;18.70;99.90
17587;DHT22;8912;52.336;17.172;2022-08-03T04:42:26;18.70;99.90
17587;DHT22;8912;52.336;17.172;2022-08-03T04:44:55;18.70;99.90
17587;DHT22;8912;52.336;17.172;2022-08-03T04:47:29;18.80;99.90
17587;DHT22;8912;52.336;17.172;2022-08-03T04:50:00;18.90;99.90
17587;DHT22;8912;52.336;17.172;2022-08-03T04:52:29;19.10;99.90
17587;DHT22;8912;52.336;17.172;2022-08-03T04:55:00;19.10;99.90
17587;DHT22;8912;52.336;17.172;2022-08-03T04:57:29;19.20;99.90
17587;DHT22;8912;52.336;17.172;2022-08-03T04:59:57;19.40;99.90
17587;DHT22;8912;52.336;17.172;2022-08-03T05:02:30;19.80;99.90
17587;DHT22;8912;52.336;17.172;2022-08-03T05:04:59;20.30;99.90
17587;DHT22;8912;52.336;17.172;2022-08-03T05:07:28;21.10;99.90
17587;DHT22;8912;52.336;17.172;2022-08-03T05:10:07;22.00;99.90
17587;DHT22;8912;52.336;17.172;2022-08-03T05:12:43;23.10;99.90
17587;DHT22;8912;52.336;17.172;2022-08-03T05:15:13;23.50;99.90
17587;DHT22;8912;52.336;17.172;2022-08-03T05:17:42;24.00;99.90
17587;DHT22;8912;52.336;17.172;2022-08-03T05:20:11;24.80;99.90
17587;DHT22;8912;52.336;17.172;2022-08-03T05:22:45;25.50;99.90
17587;DHT22;8912;52.336;17.172;2022-08-03T05:25:16;26.10;99.90
17587;DHT22;8912;52.336;17.172;2022-08-03T05:27:48;25.90;99.90
17587;DHT22;8912;52.336;17.172;2022-08-03T05:30:17;25.30;99.90
17587;DHT22;8912;52.336;17.172;2022-08-03T05:33:01;25.40;99.90
17587;DHT22;8912;52.336;17.172;2022-08-03T05:35:30;25.90;99.60
17587;DHT22;8912;52.336;17.172;2022-08-03T05:38:21;25.50;99.90
17587;DHT22;8912;52.336;17.172;2022-08-03T05:41:03;25.20;99.90
17587;DHT22;8912;52.336;17.172;2022-08-03T05:43:50;25.30;99.90
17587;DHT22;8912;52.336;17.172;2022-08-03T05:46:20;25.00;99.90
17587;DHT22;8912;52.336;17.172;2022-08-03T05:48:50;24.80;99.90
17587;DHT22;8912;52.336;17.172;2022-08-03T05:51:19;24.50;99.90
17587;DHT22;8912;52.336;17.172;2022-08-03T05:53:47;23.90;99.90
17587;DHT22;8912;52.336;17.172;2022-08-03T05:56:21;23.70;99.90
17587;DHT22;8912;52.336;17.172;2022-08-03T05:58:50;23.50;99.90
17587;DHT22;8912;52.336;17.172;2022-08-03T06:01:20;23.70;99.90
17587;DHT22;8912;52.336;17.172;2022-08-03T06:03:50;23.80;99.90
17587;DHT22;8912;52.336;17.172;2022-08-03T06:06:20;24.00;99.90
17587;DHT22;8912;52.336;17.172;2022-08-03T06:08:48;24.40;99.90
17587;DHT22;8912;52.336;17.172;2022-08-03T06:11:18;24.10;99.90
17587;DHT22;8912;52.336;17.172;2022-08-03T06:13:47;24.20;99.90
17587;DHT22;8912;52.336;17.172;2022-08-03T06:16:16;24.00;99.90
17587;DHT22;8912;52.336;17.172;2022-08-03T06:18:45;23.90;99.90
17587;DHT22;8912;52.336;17.172;2022-08-03T06:21:14;23.90;99.90
17587;DHT22;8912;52.336;17.172;2022-08-03T06:23:45;23.80;99.90
17587;DHT22;8912;52.336;17.172;2022-08-03T06:26:25;23.80;99.90
17587;DHT22;8912;52.336;17.172;2022-08-03T06:28:55;24.10;99.90
17587;DHT22;8912;52.336;17.172;2022-08-03T06:31:26;24.40;99.90
17587;DHT22;8912;52.336;17.172;2022-08-03T06:34:04;24.10;99.90
17587;DHT22;8912;52.336;17.172;2022-08-03T06:36:53;24.20;99.90
17587;DHT22;8912;52.336;17.172;2022-08-03T06:39:28;24.30;99.90
17587;DHT22;8912;52.336;17.172;2022-08-03T06:41:58;24.40;99.90
17587;DHT22;8912;52.336;17.172;2022-08-03T06:44:27;24.80;99.90
17587;DHT22;8912;52.336;17.172;2022-08-03T06:46:56;24.50;99.90
17587;DHT22;8912;52.336;17.172;2022-08-03T06:49:25;24.60;99.90
17587;DHT22;8912;52.336;17.172;2022-08-03T06:51:54;24.60;99.90
17587;DHT22;8912;52.336;17.172;2022-08-03T06:54:34;24.90;99.90
17587;DHT22;8912;52.336;17.172;2022-08-03T06:57:05;25.00;99.90
17587;DHT22;8912;52.336;17.172;2022-08-03T06:59:37;25.30;99.90
17587;DHT22;8912;52.336;17.172;2022-08-03T07:02:27;25.40;99.90
17587;DHT22;8912;52.336;17.172;2022-08-03T07:04:56;25.50;99.90
17587;DHT22;8912;52.336;17.172;2022-08-03T07:07:25;25.70;99.90
17587;DHT22;8912;52.336;17.172;2022-08-03T07:09:53;25.60;99.90
17587;DHT22;8912;52.336;17.172;2022-08-03T07:12:27;25.70;99.90
17587;DHT22;8912;52.336;17.172;2022-08-03T07:14:57;25.90;99.90
17587;DHT22;8912;52.336;17.172;2022-08-03T07:17:30;25.70;99.90
17587;DHT22;8912;52.336;17.172;2022-08-03T07:20:00;25.70;99.90
17587;DHT22;8912;52.336;17.172;2022-08-03T07:22:29;25.50;99.50
17587;DHT22;8912;52.336;17.172;2022-08-03T07:24:58;25.40;99.90
17587;DHT22;8912;52.336;17.172;2022-08-03T07:27:29;25.50;97.50
17587;DHT22;8912;52.336;17.172;2022-08-03T07:29:58;25.60;96.40
17587;DHT22;8912;52.336;17.172;2022-08-03T07:32:27;25.50;96.70
17587;DHT22;8912;52.336;17.172;2022-08-03T07:34:58;25.50;96.50
17587;DHT22;8912;52.336;17.172;2022-08-03T07:37:28;25.70;98.00
17587;DHT22;8912;52.336;17.172;2022-08-03T07:39:58;25.90;96.10
17587;DHT22;8912;52.336;17.172;2022-08-03T07:42:29;26.10;95.70
17587;DHT22;8912;52.336;17.172;2022-08-03T07:44:58;26.20;94.50
17587;DHT22;8912;52.336;17.172;2022-08-03T07:47:28;26.30;94.00
17587;DHT22;8912;52.336;17.172;2022-08-03T07:50:04;26.50;93.90
17587;DHT22;8912;52.336;17.172;2022-08-03T07:52:35;26.50;93.00
17587;DHT22;8912;52.336;17.172;2022-08-03T07:55:19;26.40;94.60
17587;DHT22;8912;52.336;17.172;2022-08-03T07:58:00;26.70;92.40
17587;DHT22;8912;52.336;17.172;2022-08-03T08:00:30;26.70;89.20
17587;DHT22;8912;52.336;17.172;2022-08-03T08:02:59;26.70;94.30
17587;DHT22;8912;52.336;17.172;2022-08-03T08:05:28;26.80;93.70
17587;DHT22;8912;52.336;17.172;2022-08-03T08:07:57;27.00;93.30
17587;DHT22;8912;52.336;17.172;2022-08-03T08:10:26;27.20;91.90
17587;DHT22;8912;52.336;17.172;2022-08-03T08:12:56;27.20;91.30
17587;DHT22;8912;52.336;17.172;2022-08-03T08:15:26;27.10;91.10
17587;DHT22;8912;52.336;17.172;2022-08-03T08:17:56;27.20;90.80
17587;DHT22;8912;52.336;17.172;2022-08-03T08:20:27;27.40;91.90
17587;DHT22;8912;52.336;17.172;2022-08-03T08:22:59;27.50;90.60
17587;DHT22;8912;52.336;17.172;2022-08-03T08:25:30;27.60;92.00
17587;DHT22;8912;52.336;17.172;2022-08-03T08:28:00;27.30;91.40
17587;DHT22;8912;52.336;17.172;2022-08-03T08:30:59;27.30;92.10
17587;DHT22;8912;52.336;17.172;2022-08-03T08:33:29;27.60;91.40
17587;DHT22;8912;52.336;17.172;2022-08-03T08:36:17;27.60;90.80
17587;DHT22;8912;52.336;17.172;2022-08-03T08:38:47;27.60;89.90
17587;DHT22;8912;52.336;17.172;2022-08-03T08:41:16;27.70;90.40
17587;DHT22;8912;52.336;17.172;2022-08-03T08:43:44;27.80;90.00
17587;DHT22;8912;52.336;17.172;2022-08-03T08:46:15;27.90;87.20
17587;DHT22;8912;52.336;17.172;2022-08-03T08:48:51;27.80;89.10
17587;DHT22;8912;52.336;17.172;2022-08-03T08:51:21;28.00;85.60
17587;DHT22;8912;52.336;17.172;2022-08-03T08:54:14;28.00;89.40
17587;DHT22;8912;52.336;17.172;2022-08-03T08:56:46;28.10;89.40
17587;DHT22;8912;52.336;17.172;2022-08-03T08:59:16;28.30;84.90
17587;DHT22;8912;52.336;17.172;2022-08-03T09:01:47;28.40;87.10
17587;DHT22;8912;52.336;17.172;2022-08-03T09:04:16;28.50;84.70
17587;DHT22;8912;52.336;17.172;2022-08-03T09:06:45;28.50;80.60
17587;DHT22;8912;52.336;17.172;2022-08-03T09:09:34;28.40;82.70
17587;DHT22;8912;52.336;17.172;2022-08-03T09:12:23;28.50;81.10
17587;DHT22;8912;52.336;17.172;2022-08-03T09:15:16;28.40;80.10
17587;DHT22;8912;52.336;17.172;2022-08-03T09:17:47;28.60;79.90
17587;DHT22;8912;52.336;17.172;2022-08-03T09:20:18;28.60;82.10
17587;DHT22;8912;52.336;17.172;2022-08-03T09:22:55;28.40;83.00
17587;DHT22;8912;52.336;17.172;2022-08-03T09:25:31;28.50;84.70
17587;DHT22;8912;52.336;17.172;2022-08-03T09:28:06;28.90;77.10
17587;DHT22;8912;52.336;17.172;2022-08-03T09:30:38;29.10;80.50
17587;DHT22;8912;52.336;17.172;2022-08-03T09:33:09;29.20;79.70
17587;DHT22;8912;52.336;17.172;2022-08-03T09:35:42;29.10;77.60
17587;DHT22;8912;52.336;17.172;2022-08-03T09:38:22;29.20;77.60
17587;DHT22;8912;52.336;17.172;2022-08-03T09:40:53;29.20;74.70
17587;DHT22;8912;52.336;17.172;2022-08-03T09:43:27;29.30;73.80
17587;DHT22;8912;52.336;17.172;2022-08-03T09:46:02;29.30;75.90
17587;DHT22;8912;52.336;17.172;2022-08-03T09:48:32;29.30;72.80
17587;DHT22;8912;52.336;17.172;2022-08-03T09:51:04;29.30;74.80
17587;DHT22;8912;52.336;17.172;2022-08-03T09:53:54;29.30;73.20
17587;DHT22;8912;52.336;17.172;2022-08-03T09:56:41;29.40;70.70
17587;DHT22;8912;52.336;17.172;2022-08-03T09:59:11;29.50;75.10
17587;DHT22;8912;52.336;17.172;2022-08-03T10:01:41;29.50;75.50
17587;DHT22;8912;52.336;17.172;2022-08-03T10:04:15;29.50;75.00
17587;DHT22;8912;52.336;17.172;2022-08-03T10:06:45;29.20;73.40
17587;DHT22;8912;52.336;17.172;2022-08-03T10:09:28;29.30;77.50
17587;DHT22;8912;52.336;17.172;2022-08-03T10:12:06;29.20;71.30
17587;DHT22;8912;52.336;17.172;2022-08-03T10:14:36;29.20;73.10
17587;DHT22;8912;52.336;17.172;2022-08-03T10:17:06;29.30;75.30
17587;DHT22;8912;52.336;17.172;2022-08-03T10:19:36;29.60;72.60
17587;DHT22;8912;52.336;17.172;2022-08-03T10:22:09;29.60;71.90
17587;DHT22;8912;52.336;17.172;2022-08-03T10:24:49;29.60;69.20
17587;DHT22;8912;52.336;17.172;2022-08-03T10:27:19;29.60;69.40
17587;DHT22;8912;52.336;17.172;2022-08-03T10:29:52;29.50;72.50
17587;DHT22;8912;52.336;17.172;2022-08-03T10:32:26;29.60;72.10
17587;DHT22;8912;52.336;17.172;2022-08-03T10:35:03;29.80;71.20
17587;DHT22;8912;52.336;17.172;2022-08-03T10:37:51;29.70;70.90
17587;DHT22;8912;52.336;17.172;2022-08-03T10:40:26;29.90;73.50
17587;DHT22;8912;52.336;17.172;2022-08-03T10:43:18;29.90;67.50
17587;DHT22;8912;52.336;17.172;2022-08-03T10:45:48;30.10;70.80
17587;DHT22;8912;52.336;17.172;2022-08-03T10:48:17;29.90;70.20
17587;DHT22;8912;52.336;17.172;2022-08-03T10:50:49;30.10;70.70
17587;DHT22;8912;52.336;17.172;2022-08-03T10:53:33;30.30;66.20
17587;DHT22;8912;52.336;17.172;2022-08-03T10:56:03;30.40;65.80
17587;DHT22;8912;52.336;17.172;2022-08-03T10:59:09;29.90;70.00
17587;DHT22;8912;52.336;17.172;2022-08-03T11:01:50;29.90;68.40
17587;DHT22;8912;52.336;17.172;2022-08-03T11:04:27;29.60;72.30
17587;DHT22;8912;52.336;17.172;2022-08-03T11:07:19;29.70;72.60
17587;DHT22;8912;52.336;17.172;2022-08-03T11:09:51;29.60;70.50
17587;DHT22;8912;52.336;17.172;2022-08-03T11:12:22;29.90;69.10
17587;DHT22;8912;52.336;17.172;2022-08-03T11:14:59;29.70;69.60
17587;DHT22;8912;52.336;17.172;2022-08-03T11:17:28;30.00;71.90
17587;DHT22;8912;52.336;17.172;2022-08-03T11:19:57;30.40;68.90
17587;DHT22;8912;52.336;17.172;2022-08-03T11:22:47;30.50;68.90
17587;DHT22;8912;52.336;17.172;2022-08-03T11:25:17;30.50;67.20
17587;DHT22;8912;52.336;17.172;2022-08-03T11:28:25;30.70;67.50
17587;DHT22;8912;52.336;17.172;2022-08-03T11:30:55;30.80;68.30
17587;DHT22;8912;52.336;17.172;2022-08-03T11:33:30;31.10;64.10
17587;DHT22;8912;52.336;17.172;2022-08-03T11:36:00;31.00;57.70
17587;DHT22;8912;52.336;17.172;2022-08-03T11:38:31;30.90;57.80
17587;DHT22;8912;52.336;17.172;2022-08-03T11:41:00;30.80;57.80
17587;DHT22;8912;52.336;17.172;2022-08-03T11:43:44;30.90;59.80
17587;DHT22;8912;52.336;17.172;2022-08-03T11:46:14;31.00;55.70
17587;DHT22;8912;52.336;17.172;2022-08-03T11:49:02;31.00;55.40
17587;DHT22;8912;52.336;17.172;2022-08-03T11:51:37;30.70;56.30
17587;DHT22;8912;52.336;17.172;2022-08-03T11:54:08;31.00;56.80
17587;DHT22;8912;52.336;17.172;2022-08-03T11:56:44;31.00;55.50
17587;DHT22;8912;52.336;17.172;2022-08-03T11:59:14;30.70;56.30
17587;DHT22;8912;52.336;17.172;2022-08-03T12:01:49;31.00;59.70
17587;DHT22;8912;52.336;17.172;2022-08-03T12:04:18;31.20;56.50
17587;DHT22;8912;52.336;17.172;2022-08-03T12:06:59;30.80;54.70
17587;DHT22;8912;52.336;17.172;2022-08-03T12:09:30;30.60;56.80
17587;DHT22;8912;52.336;17.172;2022-08-03T12:12:03;30.50;55.30
17587;DHT22;8912;52.336;17.172;2022-08-03T12:14:31;30.70;55.40
17587;DHT22;8912;52.336;17.172;2022-08-03T12:17:17;30.60;55.10
17587;DHT22;8912;52.336;17.172;2022-08-03T12:19:46;30.70;55.60
17587;DHT22;8912;52.336;17.172;2022-08-03T12:22:15;30.80;56.70
17587;DHT22;8912;52.336;17.172;2022-08-03T12:24:46;31.20;57.70
17587;DHT22;8912;52.336;17.172;2022-08-03T12:27:22;31.50;57.10
17587;DHT22;8912;52.336;17.172;2022-08-03T12:29:52;31.70;54.40
17587;DHT22;8912;52.336;17.172;2022-08-03T12:32:25;31.90;55.50
17587;DHT22;8912;52.336;17.172;2022-08-03T12:34:55;31.70;55.80
17587;DHT22;8912;52.336;17.172;2022-08-03T12:37:28;31.60;54.40
17587;DHT22;8912;52.336;17.172;2022-08-03T12:40:00;31.30;53.60
17587;DHT22;8912;52.336;17.172;2022-08-03T12:42:37;31.20;54.60
17587;DHT22;8912;52.336;17.172;2022-08-03T12:45:23;31.10;53.70
17587;DHT22;8912;52.336;17.172;2022-08-03T12:47:54;31.40;54.70
17587;DHT22;8912;52.336;17.172;2022-08-03T12:50:25;31.50;55.10
17587;DHT22;8912;52.336;17.172;2022-08-03T12:52:55;31.70;55.30
17587;DHT22;8912;52.336;17.172;2022-08-03T12:55:26;31.90;55.00
17587;DHT22;8912;52.336;17.172;2022-08-03T12:58:28;32.10;53.50
17587;DHT22;8912;52.336;17.172;2022-08-03T13:01:00;32.30;55.00
17587;DHT22;8912;52.336;17.172;2022-08-03T13:03:39;32.20;54.60
17587;DHT22;8912;52.336;17.172;2022-08-03T13:06:11;32.00;53.60
17587;DHT22;8912;52.336;17.172;2022-08-03T13:08:41;31.70;52.90
17587;DHT22;8912;52.336;17.172;2022-08-03T13:11:23;31.40;55.00
17587;DHT22;8912;52.336;17.172;2022-08-03T13:14:12;31.50;54.70
17587;DHT22;8912;52.336;17.172;2022-08-03T13:16:46;31.50;54.20
17587;DHT22;8912;52.336;17.172;2022-08-03T13:19:15;31.80;54.40
17587;DHT22;8912;52.336;17.172;2022-08-03T13:21:44;31.50;52.00
17587;DHT22;8912;52.336;17.172;2022-08-03T13:24:31;31.60;52.90
17587;DHT22;8912;52.336;17.172;2022-08-03T13:27:02;31.90;52.20
17587;DHT22;8912;52.336;17.172;2022-08-03T13:29:53;32.00;52.60
17587;DHT22;8912;52.336;17.172;2022-08-03T13:32:22;32.00;52.90
17587;DHT22;8912;52.336;17.172;2022-08-03T13:34:51;31.90;53.00
17587;DHT22;8912;52.336;17.172;2022-08-03T13:37:20;31.90;54.10
17587;DHT22;8912;52.336;17.172;2022-08-03T13:39:49;31.90;53.60
17587;DHT22;8912;52.336;17.172;2022-08-03T13:42:29;31.90;53.40
17587;DHT22;8912;52.336;17.172;2022-08-03T13:44:59;32.00;54.50
17587;DHT22;8912;52.336;17.172;2022-08-03T13:47:29;32.30;54.20
17587;DHT22;8912;52.336;17.172;2022-08-03T13:49:58;31.90;51.70
17587;DHT22;8912;52.336;17.172;2022-08-03T13:52:31;32.00;53.40
17587;DHT22;8912;52.336;17.172;2022-08-03T13:55:00;31.90;54.50
17587;DHT22;8912;52.336;17.172;2022-08-03T13:57:31;31.70;54.50
17587;DHT22;8912;52.336;17.172;2022-08-03T14:00:20;31.70;53.20
17587;DHT22;8912;52.336;17.172;2022-08-03T14:03:00;31.80;53.00
17587;DHT22;8912;52.336;17.172;2022-08-03T14:05:39;31.70;53.10
17587;DHT22;8912;52.336;17.172;2022-08-03T14:08:09;31.70;52.80
17587;DHT22;8912;52.336;17.172;2022-08-03T14:10:40;31.90;55.80
17587;DHT22;8912;52.336;17.172;2022-08-03T14:13:11;31.80;53.00
17587;DHT22;8912;52.336;17.172;2022-08-03T14:15:44;31.70;53.20
17587;DHT22;8912;52.336;17.172;2022-08-03T14:18:18;31.70;53.70
17587;DHT22;8912;52.336;17.172;2022-08-03T14:21:00;31.60;53.30
17587;DHT22;8912;52.336;17.172;2022-08-03T14:23:34;31.70;53.90
17587;DHT22;8912;52.336;17.172;2022-08-03T14:26:04;31.70;53.40
17587;DHT22;8912;52.336;17.172;2022-08-03T14:28:35;31.40;53.60
17587;DHT22;8912;52.336;17.172;2022-08-03T14:31:04;31.30;55.20
17587;DHT22;8912;52.336;17.172;2022-08-03T14:33:41;31.20;55.50
17587;DHT22;8912;52.336;17.172;2022-08-03T14:36:10;31.20;55.00
17587;DHT22;8912;52.336;17.172;2022-08-03T14:38:39;31.00;54.60
17587;DHT22;8912;52.336;17.172;2022-08-03T14:41:08;31.10;56.00
17587;DHT22;8912;52.336;17.172;2022-08-03T14:43:47;31.00;55.80
17587;DHT22;8912;52.336;17.172;2022-08-03T14:46:29;31.10;55.30
17587;DHT22;8912;52.336;17.172;2022-08-03T14:48:58;31.20;55.00
17587;DHT22;8912;52.336;17.172;2022-08-03T14:51:47;31.40;55.40
17587;DHT22;8912;52.336;17.172;2022-08-03T14:54:20;31.50;55.60
17587;DHT22;8912;52.336;17.172;2022-08-03T14:56:49;31.40;56.00
17587;DHT22;8912;52.336;17.172;2022-08-03T14:59:20;31.30;54.80
17587;DHT22;8912;52.336;17.172;2022-08-03T15:01:49;31.30;55.40
17587;DHT22;8912;52.336;17.172;2022-08-03T15:04:32;31.30;55.40
17587;DHT22;8912;52.336;17.172;2022-08-03T15:07:01;30.90;54.60
17587;DHT22;8912;52.336;17.172;2022-08-03T15:09:30;30.60;55.30
17587;DHT22;8912;52.336;17.172;2022-08-03T15:11:59;30.40;56.00
17587;DHT22;8912;52.336;17.172;2022-08-03T15:14:29;30.80;57.60
17587;DHT22;8912;52.336;17.172;2022-08-03T15:17:01;31.10;56.50
17587;DHT22;8912;52.336;17.172;2022-08-03T15:19:30;31.30;57.70
17587;DHT22;8912;52.336;17.172;2022-08-03T15:22:19;31.40;56.00
17587;DHT22;8912;52.336;17.172;2022-08-03T15:25:01;31.40;56.70
17587;DHT22;8912;52.336;17.172;2022-08-03T15:27:50;31.10;55.30
17587;DHT22;8912;52.336;17.172;2022-08-03T15:30:32;30.90;56.40
17587;DHT22;8912;52.336;17.172;2022-08-03T15:33:03;30.60;57.50
17587;DHT22;8912;52.336;17.172;2022-08-03T15:35:33;30.60;57.70
17587;DHT22;8912;52.336;17.172;2022-08-03T15:38:01;30.80;57.50
17587;DHT22;8912;52.336;17.172;2022-08-03T15:40:35;30.90;56.30
17587;DHT22;8912;52.336;17.172;2022-08-03T15:43:04;31.10;56.90
17587;DHT22;8912;52.336;17.172;2022-08-03T15:45:35;31.30;56.30
17587;DHT22;8912;52.336;17.172;2022-08-03T15:48:04;31.40;56.10
17587;DHT22;8912;52.336;17.172;2022-08-03T15:50:33;31.30;58.10
17587;DHT22;8912;52.336;17.172;2022-08-03T15:53:02;31.30;57.20
17587;DHT22;8912;52.336;17.172;2022-08-03T15:55:31;31.50;57.60
17587;DHT22;8912;52.336;17.172;2022-08-03T15:58:00;31.50;57.10
17587;DHT22;8912;52.336;17.172;2022-08-03T16:00:50;31.50;55.70
17587;DHT22;8912;52.336;17.172;2022-08-03T16:03:18;31.50;56.40
17587;DHT22;8912;52.336;17.172;2022-08-03T16:05:47;31.50;54.70
17587;DHT22;8912;52.336;17.172;2022-08-03T16:08:15;31.50;55.80
17587;DHT22;8912;52.336;17.172;2022-08-03T16:10:45;31.50;57.80